createdAt,value
2022-12-08T00:02:17.312Z,13.52
2022-12-08T00:07:39.440Z,20.90
2022-12-08T00:12:42.087Z,14.23
2022-12-08T00:17:44.607Z,17.40
2022-12-08T00:22:47.467Z,21.42
2022-12-08T00:27:50.049Z,21.20
2022-12-08T00:32:52.683Z,23.30
2022-12-08T00:38:00.616Z,21.45
2022-12-08T00:43:03.733Z,22.63
2022-12-08T00:48:07.933Z,24.73
2022-12-08T00:53:11.530Z,17.03
2022-12-08T00:58:14.111Z,22.60
2022-12-08T01:03:16.677Z,29.20
2022-12-08T01:08:19.368Z,19.48
2022-12-08T01:13:21.977Z,17.85
2022-12-08T01:18:24.525Z,20.30
2022-12-08T01:23:28.796Z,27.90
2022-12-08T01:28:31.759Z,24.88
2022-12-08T01:33:34.776Z,28.52
2022-12-08T01:38:38.389Z,27.63
2022-12-08T01:44:01.563Z,24.35
2022-12-08T01:49:23.862Z,25.00
2022-12-08T01:54:35.351Z,28.38
2022-12-08T02:00:08.863Z,24.58
2022-12-08T02:05:39.370Z,30.05
2022-12-08T02:10:43.987Z,23.80
2022-12-08T02:15:49.371Z,24.10
2022-12-08T02:21:06.976Z,27.55
2022-12-08T02:26:28.817Z,25.05
2022-12-08T02:31:50.646Z,21.02
2022-12-08T02:36:59.195Z,20.27
2022-12-08T02:42:26.262Z,20.83
2022-12-08T02:47:37.012Z,18.92
2022-12-08T02:52:41.993Z,19.40
2022-12-08T02:57:50.671Z,18.70
2022-12-08T03:02:59.341Z,20.92
2022-12-08T03:08:17.338Z,19.50
2022-12-08T03:13:23.909Z,19.45
2022-12-08T03:18:29.162Z,20.00
2022-12-08T03:23:32.072Z,19.67
2022-12-08T03:28:34.954Z,33.78
2022-12-08T03:33:57.036Z,25.45
2022-12-08T03:39:00.443Z,18.33
2022-12-08T03:44:03.250Z,15.20
2022-12-08T03:49:05.991Z,12.15
2022-12-08T03:54:08.507Z,18.92
2022-12-08T03:59:11.393Z,24.73
2022-12-08T04:04:13.939Z,21.05
2022-12-08T04:09:18.787Z,14.80
2022-12-08T04:19:24.449Z,16.90
2022-12-08T04:24:27.101Z,14.05
2022-12-08T04:29:32.269Z,20.10
2022-12-08T04:34:37.284Z,14.77
2022-12-08T04:39:43.116Z,8.70
2022-12-08T04:44:45.760Z,13.60
2022-12-08T04:49:48.597Z,13.95
2022-12-08T04:54:51.269Z,10.00
2022-12-08T04:59:53.936Z,9.77
2022-12-08T05:04:57.639Z,12.95
2022-12-08T05:10:00.515Z,7.53
2022-12-08T05:15:10.042Z,8.88
2022-12-08T05:20:13.197Z,4.85
2022-12-08T05:25:15.766Z,6.32
2022-12-08T05:30:18.604Z,7.20
2022-12-08T05:35:21.212Z,7.38
2022-12-08T05:40:23.847Z,6.22
2022-12-08T05:45:26.457Z,7.30
2022-12-08T05:50:29.109Z,5.82
2022-12-08T05:55:32.830Z,12.80
2022-12-08T06:00:35.429Z,6.07
2022-12-08T06:05:38.202Z,5.43
2022-12-08T06:10:42.648Z,5.57
2022-12-08T06:15:46.827Z,4.95
2022-12-08T06:20:52.462Z,4.13
2022-12-08T06:25:55.588Z,5.63
2022-12-08T06:30:59.261Z,5.80
2022-12-08T06:36:01.794Z,4.95
2022-12-08T06:41:08.456Z,3.90
2022-12-08T06:46:14.197Z,5.38
2022-12-08T06:51:19.877Z,4.18
2022-12-08T06:56:24.601Z,5.18
2022-12-08T07:01:30.656Z,6.32
2022-12-08T07:06:33.229Z,3.95
2022-12-08T07:11:36.891Z,4.70
2022-12-08T07:16:39.728Z,6.50
2022-12-08T07:21:42.499Z,8.55
2022-12-08T07:26:45.184Z,8.35
2022-12-08T07:31:47.825Z,9.40
2022-12-08T07:36:51.702Z,8.00
2022-12-08T07:41:54.674Z,9.88
2022-12-08T07:46:57.310Z,6.05
2022-12-08T07:52:00.048Z,7.30
2022-12-08T07:57:03.732Z,7.85
2022-12-08T08:02:23.561Z,8.18
2022-12-08T08:07:28.067Z,6.80
2022-12-08T08:12:32.111Z,6.35
2022-12-08T08:17:39.044Z,10.02
2022-12-08T08:22:44.395Z,5.03
2022-12-08T08:32:50.228Z,7.22
2022-12-08T08:37:52.728Z,5.90
2022-12-08T08:42:57.261Z,7.88
2022-12-08T08:48:01.552Z,7.97
2022-12-08T08:53:04.094Z,6.13
2022-12-08T08:58:08.170Z,8.80
2022-12-08T09:03:13.910Z,14.85
2022-12-08T09:08:19.547Z,9.70
2022-12-08T09:13:23.704Z,9.63
2022-12-08T09:23:35.191Z,9.50
2022-12-08T09:28:39.656Z,10.88
2022-12-08T09:33:42.829Z,14.03
2022-12-08T09:38:46.725Z,11.55
2022-12-08T09:48:59.158Z,9.43
2022-12-08T09:54:08.281Z,11.85
2022-12-08T09:59:31.715Z,5.70
2022-12-08T10:04:36.673Z,6.38
2022-12-08T10:09:46.044Z,6.90
2022-12-08T10:15:18.755Z,6.15
2022-12-08T10:20:25.456Z,7.25
2022-12-08T10:25:37.929Z,6.75
2022-12-08T10:30:41.761Z,7.65
2022-12-08T10:35:58.547Z,5.55
2022-12-08T10:41:09.966Z,7.43
2022-12-08T10:46:18.793Z,6.82
2022-12-08T10:51:38.802Z,6.63
2022-12-08T10:56:54.689Z,8.43
2022-12-08T11:02:00.800Z,6.72
2022-12-08T11:07:05.968Z,7.88
2022-12-08T11:12:15.303Z,9.70
2022-12-08T11:17:28.688Z,5.25
2022-12-08T11:22:31.322Z,7.38
2022-12-08T11:27:39.670Z,5.15
2022-12-08T11:32:47.388Z,11.27
2022-12-08T11:37:50.424Z,8.02
2022-12-08T11:43:34.371Z,5.13
2022-12-08T11:48:44.548Z,3.25
2022-12-08T11:54:09.077Z,2.58
2022-12-08T11:59:30.201Z,3.72
2022-12-08T12:04:40.950Z,3.72
2022-12-08T12:10:13.033Z,4.13
2022-12-08T12:15:47.922Z,5.18
2022-12-08T12:21:13.524Z,3.22
2022-12-08T12:26:25.652Z,4.45
2022-12-08T12:31:35.148Z,5.10
2022-12-08T12:36:57.545Z,4.25
2022-12-08T12:42:02.375Z,8.02
2022-12-08T12:47:10.771Z,8.23
2022-12-08T12:52:16.257Z,5.03
2022-12-08T12:57:23.275Z,10.85
2022-12-08T13:02:41.122Z,9.48
2022-12-08T13:08:08.673Z,4.25
2022-12-08T13:13:18.118Z,9.30
2022-12-08T13:18:36.575Z,3.83
2022-12-08T13:23:39.294Z,3.90
2022-12-08T13:29:04.995Z,3.20
2022-12-08T13:34:19.072Z,3.03
2022-12-08T13:39:26.002Z,4.73
2022-12-08T13:45:21.500Z,2.33
2022-12-08T14:01:19.958Z,4.65
2022-12-08T14:06:30.853Z,5.22
2022-12-08T14:11:37.235Z,3.30
2022-12-08T14:16:43.879Z,5.43
2022-12-08T14:21:53.346Z,4.35
2022-12-08T14:27:02.560Z,4.22
2022-12-08T14:32:07.552Z,6.70
2022-12-08T14:37:13.631Z,5.80
2022-12-08T14:42:24.585Z,5.95
2022-12-08T14:47:34.791Z,5.47
2022-12-08T14:52:43.542Z,5.00
2022-12-08T14:57:48.753Z,9.15
2022-12-08T15:02:51.514Z,4.13
2022-12-08T15:08:02.496Z,5.35
2022-12-08T15:13:05.280Z,4.03
2022-12-08T15:18:18.173Z,5.10
2022-12-08T15:23:25.145Z,9.30
2022-12-08T15:28:30.460Z,10.98
2022-12-08T15:33:33.309Z,10.00
2022-12-08T15:38:36.174Z,10.18
2022-12-08T15:43:40.190Z,14.75
2022-12-08T15:48:42.959Z,10.43
2022-12-08T15:53:45.556Z,6.47
2022-12-08T15:58:56.940Z,6.65
2022-12-08T16:09:42.963Z,11.23
2022-12-08T16:20:16.804Z,25.08
2022-12-08T16:25:21.668Z,17.40
2022-12-08T16:30:24.844Z,14.30
2022-12-08T16:35:27.413Z,10.13
2022-12-08T16:40:30.289Z,18.55
2022-12-08T16:45:33.288Z,22.48
2022-12-08T16:50:57.037Z,20.23
2022-12-08T16:56:02.131Z,21.70
2022-12-08T17:01:06.749Z,25.10
2022-12-08T17:06:14.380Z,21.45
2022-12-08T17:11:22.356Z,19.00
2022-12-08T17:16:26.917Z,25.70
2022-12-08T17:21:29.750Z,22.63
2022-12-08T17:26:32.279Z,20.83
2022-12-08T17:31:35.097Z,23.77
2022-12-08T17:36:37.872Z,20.50
2022-12-08T17:41:40.631Z,27.45
2022-12-08T17:46:50.690Z,18.92
2022-12-08T17:51:58.430Z,42.70
2022-12-08T17:57:01.364Z,24.50
2022-12-08T18:02:04.543Z,32.38
2022-12-08T18:07:11.156Z,30.98
2022-12-08T18:12:16.947Z,26.02
2022-12-08T18:17:21.917Z,31.75
2022-12-08T18:22:24.768Z,22.55
2022-12-08T18:27:27.277Z,22.80
2022-12-08T18:32:29.863Z,31.20
2022-12-08T18:37:32.508Z,33.40
2022-12-08T18:42:36.660Z,30.42
2022-12-08T18:47:41.766Z,21.80
2022-12-08T18:52:46.065Z,22.92
2022-12-08T18:57:49.291Z,36.97
2022-12-08T19:02:52.032Z,35.50
2022-12-08T19:07:56.109Z,20.63
2022-12-08T19:12:59.224Z,29.52
2022-12-08T19:18:02.019Z,32.97
2022-12-08T19:23:04.583Z,40.70
2022-12-08T19:28:10.626Z,30.05
2022-12-08T19:33:14.299Z,22.98
2022-12-08T19:38:17.376Z,33.90
2022-12-08T19:43:39.876Z,25.05
2022-12-08T19:48:42.510Z,30.13
2022-12-08T19:53:47.907Z,31.63
2022-12-08T19:58:50.742Z,40.58
2022-12-08T20:03:53.785Z,27.15
2022-12-08T20:08:56.455Z,29.27
2022-12-08T20:14:01.834Z,28.00
2022-12-08T20:19:05.296Z,28.73
2022-12-08T20:24:08.272Z,29.45
2022-12-08T20:29:12.109Z,42.03
2022-12-08T20:34:19.955Z,25.88
2022-12-08T20:39:22.651Z,31.55
2022-12-08T20:44:25.401Z,27.63
2022-12-08T20:49:34.202Z,44.03
2022-12-08T20:54:56.022Z,33.63
2022-12-08T20:59:58.649Z,28.02
2022-12-08T21:05:01.722Z,23.20
2022-12-08T21:10:05.547Z,37.95
2022-12-08T21:15:12.460Z,40.30
2022-12-08T21:20:15.164Z,26.95
2022-12-08T21:25:18.103Z,33.60
2022-12-08T21:30:21.165Z,39.70
2022-12-08T21:35:24.583Z,25.15
2022-12-08T21:40:27.397Z,42.83
2022-12-08T21:45:30.571Z,36.53
2022-12-08T21:50:33.096Z,43.15
2022-12-08T21:55:36.171Z,27.50
2022-12-08T22:00:39.114Z,35.17
2022-12-08T22:05:42.895Z,39.17
2022-12-08T22:10:48.898Z,30.35
2022-12-08T22:15:59.444Z,48.65
2022-12-08T22:21:21.089Z,40.88
2022-12-08T22:26:24.149Z,36.15
2022-12-08T22:31:27.003Z,42.70
2022-12-08T22:36:30.026Z,47.33
2022-12-08T22:41:34.099Z,55.88
2022-12-08T22:46:36.710Z,39.53
2022-12-08T22:51:40.002Z,30.75
2022-12-08T22:56:42.618Z,45.83
2022-12-08T23:01:45.613Z,48.20
2022-12-08T23:06:49.762Z,50.55
2022-12-08T23:11:53.640Z,38.63
2022-12-08T23:16:56.440Z,41.00
2022-12-08T23:21:59.227Z,50.38
2022-12-08T23:27:02.670Z,49.08
2022-12-08T23:32:26.710Z,45.13
2022-12-08T23:37:30.015Z,29.08
2022-12-08T23:42:33.836Z,31.65
2022-12-08T23:47:37.947Z,22.77
2022-12-08T23:52:40.652Z,33.13
2022-12-08T23:57:44.608Z,24.23
